Cape Cottage, Maine
Current Conditions -  °F | °C
As of 8:38 AM on Wednesday 22 Oct 2014 (Local Time) from KPWM Reporting Station
Light Rain Light Rain  
Wind Chill: 50°   Ceiling: 900
Heat Index: 50°   Visibility: 8mi
Dew Point: 46°   Wind: 13mph
Humidity: 86%   Direction: 20°NNE
Pressure: 30.11"   Gusts: NA
Location:  43.5903°N, 70.2379°W
Report Text: KPWM 221238Z 02011KT 8SM -RA BKN009 OVC013 10/08 A3011 RMK AO2 P0001 T01000078
Loading
Personal Weather Stations






























Interactive Weather Map
Tropical Storm Tracking
New forecast layout! Learn more

10-Day Weather Forecast

Advertisements
Track Severe Weather on mobile